createdAt,value
2018-11-13T00:01:18.853Z,13.00
2018-11-13T00:03:46.591Z,12.90
2018-11-13T00:06:14.404Z,12.70
2018-11-13T00:08:42.129Z,12.70
2018-11-13T00:11:09.829Z,12.80
2018-11-13T00:13:37.558Z,12.90
2018-11-13T00:16:05.277Z,12.80
2018-11-13T00:18:33.006Z,12.30
2018-11-13T00:21:00.790Z,12.40
2018-11-13T00:23:28.508Z,12.40
2018-11-13T00:25:56.293Z,12.20
2018-11-13T00:28:24.017Z,12.20
2018-11-13T00:30:51.752Z,12.30
2018-11-13T00:33:19.492Z,12.30
2018-11-13T00:35:47.210Z,12.20
2018-11-13T00:38:14.974Z,12.50
2018-11-13T00:40:42.716Z,12.40
2018-11-13T00:43:10.444Z,12.30
2018-11-13T00:45:38.235Z,12.30
2018-11-13T00:48:05.959Z,12.30
2018-11-13T00:50:33.729Z,12.30
2018-11-13T00:53:01.414Z,12.20
2018-11-13T00:55:29.116Z,12.40
2018-11-13T00:57:56.833Z,12.30
2018-11-13T01:00:24.579Z,12.30
2018-11-13T01:02:52.288Z,12.70
2018-11-13T01:05:21.456Z,12.60
2018-11-13T01:07:50.381Z,12.60
2018-11-13T01:10:18.711Z,12.40
2018-11-13T01:12:47.070Z,12.20
2018-11-13T01:15:15.972Z,12.30
2018-11-13T01:17:44.535Z,12.30
2018-11-13T01:20:12.835Z,12.70
2018-11-13T01:22:40.567Z,12.60
2018-11-13T01:25:09.371Z,12.70
2018-11-13T01:27:37.134Z,12.30
2018-11-13T01:30:06.765Z,12.60
2018-11-13T01:32:34.570Z,12.50
2018-11-13T01:35:02.280Z,12.30
2018-11-13T01:37:30.017Z,12.40
2018-11-13T01:39:57.757Z,11.80
2018-11-13T01:42:25.920Z,12.30
2018-11-13T01:44:53.628Z,12.20
2018-11-13T01:47:21.338Z,11.80
2018-11-13T01:49:49.073Z,11.80
2018-11-13T01:52:16.789Z,12.00
2018-11-13T01:54:44.517Z,12.20
2018-11-13T01:57:12.559Z,12.40
2018-11-13T01:59:40.035Z,11.90
2018-11-13T02:02:07.762Z,11.80
2018-11-13T02:04:35.502Z,12.10
2018-11-13T02:07:03.213Z,11.90
2018-11-13T02:09:30.963Z,11.90
2018-11-13T02:11:58.656Z,11.80
2018-11-13T02:14:26.393Z,11.90
2018-11-13T02:16:54.120Z,11.40
2018-11-13T02:19:21.856Z,12.30
2018-11-13T02:21:49.541Z,12.00
2018-11-13T02:24:17.252Z,11.80
2018-11-13T02:26:44.952Z,11.90
2018-11-13T02:29:12.691Z,11.80
2018-11-13T02:31:40.400Z,12.20
2018-11-13T02:34:08.130Z,11.80
2018-11-13T02:36:35.837Z,12.40
2018-11-13T02:39:04.366Z,12.20
2018-11-13T02:41:32.070Z,12.20
2018-11-13T02:43:59.772Z,12.40
2018-11-13T02:46:27.490Z,12.20
2018-11-13T02:48:55.957Z,12.10
2018-11-13T02:51:23.687Z,12.20
2018-11-13T02:53:51.405Z,12.40
2018-11-13T02:56:19.178Z,12.20
2018-11-13T02:58:46.879Z,12.40
2018-11-13T03:01:14.617Z,12.20
2018-11-13T03:03:42.316Z,12.20
2018-11-13T03:06:10.045Z,12.30
2018-11-13T03:08:37.728Z,12.30
2018-11-13T03:11:05.498Z,12.30
2018-11-13T03:13:33.258Z,11.90
2018-11-13T03:16:00.969Z,11.90
2018-11-13T03:18:28.677Z,12.10
2018-11-13T03:20:56.433Z,12.20
2018-11-13T03:23:24.132Z,12.40
2018-11-13T03:25:51.840Z,11.70
2018-11-13T03:28:19.557Z,11.90
2018-11-13T03:30:47.254Z,11.90
2018-11-13T03:33:14.997Z,11.80
2018-11-13T03:35:42.754Z,11.80
2018-11-13T03:38:10.494Z,12.10
2018-11-13T03:40:38.273Z,12.30
2018-11-13T03:43:06.006Z,11.90
2018-11-13T03:45:33.758Z,11.90
2018-11-13T03:48:01.469Z,12.00
2018-11-13T03:50:29.181Z,12.00
2018-11-13T03:52:56.916Z,12.00
2018-11-13T03:55:24.641Z,11.80
2018-11-13T03:57:52.332Z,11.90
2018-11-13T04:00:21.222Z,11.80
2018-11-13T04:02:49.009Z,11.80
2018-11-13T04:05:17.665Z,12.00
2018-11-13T04:07:47.613Z,11.70
2018-11-13T04:10:16.477Z,12.00
2018-11-13T04:12:44.371Z,11.90
2018-11-13T04:15:14.307Z,11.90
2018-11-13T04:17:42.092Z,11.80
2018-11-13T04:20:12.657Z,12.00
2018-11-13T04:22:40.848Z,12.40
2018-11-13T04:25:08.677Z,12.20
2018-11-13T04:27:36.702Z,12.40
2018-11-13T04:30:04.885Z,12.10
2018-11-13T04:32:32.605Z,12.20
2018-11-13T04:35:00.305Z,12.20
2018-11-13T04:37:28.068Z,12.00
2018-11-13T04:39:55.772Z,12.30
2018-11-13T04:42:23.549Z,12.10
2018-11-13T04:44:51.234Z,12.10
2018-11-13T04:47:18.985Z,12.20
2018-11-13T04:49:46.704Z,12.30
2018-11-13T04:52:14.437Z,12.30
2018-11-13T04:54:42.182Z,12.40
2018-11-13T04:57:09.893Z,11.80
2018-11-13T04:59:37.635Z,12.10
2018-11-13T05:02:05.359Z,12.10
2018-11-13T05:04:33.113Z,12.10
2018-11-13T05:07:00.842Z,12.10
2018-11-13T05:09:28.552Z,12.20
2018-11-13T05:11:56.253Z,12.20
2018-11-13T05:14:23.974Z,12.20
2018-11-13T05:16:51.687Z,12.30
2018-11-13T05:19:19.427Z,12.10
2018-11-13T05:21:47.194Z,12.20
2018-11-13T05:24:14.912Z,12.20
2018-11-13T05:26:42.633Z,12.20
2018-11-13T05:29:10.416Z,12.40
2018-11-13T05:31:38.119Z,12.20
2018-11-13T05:34:06.338Z,12.20
2018-11-13T05:36:34.049Z,12.50
2018-11-13T05:39:01.763Z,12.20
2018-11-13T05:41:29.495Z,12.10
2018-11-13T05:43:57.237Z,12.20
2018-11-13T05:46:24.969Z,12.50
2018-11-13T05:48:52.693Z,12.40
2018-11-13T05:51:20.415Z,12.10
2018-11-13T05:53:48.150Z,12.20
2018-11-13T05:56:15.890Z,12.20
2018-11-13T05:58:43.632Z,12.10
2018-11-13T06:01:11.360Z,11.90
2018-11-13T06:03:39.108Z,12.20
2018-11-13T06:06:06.910Z,12.30
2018-11-13T06:08:34.716Z,12.40
2018-11-13T06:11:02.366Z,12.10
2018-11-13T06:13:30.097Z,12.10
2018-11-13T06:15:57.853Z,12.40
2018-11-13T06:18:25.773Z,12.40
2018-11-13T06:20:53.371Z,12.20
2018-11-13T06:23:21.066Z,12.30
2018-11-13T06:25:48.784Z,12.20
2018-11-13T06:28:16.501Z,12.50
2018-11-13T06:30:44.222Z,12.20
2018-11-13T06:33:11.928Z,12.20
2018-11-13T06:35:39.677Z,12.30
2018-11-13T06:38:07.398Z,12.20
2018-11-13T06:40:35.124Z,12.20
2018-11-13T06:43:02.854Z,12.30
2018-11-13T06:45:30.575Z,11.80
2018-11-13T06:47:58.273Z,12.20
2018-11-13T06:50:26.239Z,12.20
2018-11-13T06:52:53.972Z,12.20
2018-11-13T06:55:30.589Z,12.20
2018-11-13T06:57:58.452Z,12.20
2018-11-13T07:00:26.211Z,12.20
2018-11-13T07:02:53.921Z,12.20
2018-11-13T07:05:21.672Z,12.40
2018-11-13T07:07:49.400Z,12.30
2018-11-13T07:10:18.353Z,12.10
2018-11-13T07:12:47.272Z,12.30
2018-11-13T07:15:16.742Z,12.10
2018-11-13T07:17:45.727Z,11.80
2018-11-13T07:20:14.013Z,12.40
2018-11-13T07:22:42.005Z,12.20
2018-11-13T07:25:09.905Z,11.80
2018-11-13T07:30:16.240Z,11.90
2018-11-13T07:32:43.975Z,12.40
2018-11-13T07:35:12.915Z,12.30
2018-11-13T07:37:50.053Z,12.40
2018-11-13T07:40:17.929Z,12.30
2018-11-13T07:42:45.660Z,12.10
2018-11-13T07:45:14.222Z,12.40
2018-11-13T07:47:43.061Z,12.60
2018-11-13T07:50:11.448Z,12.80
2018-11-13T07:52:39.229Z,12.60
2018-11-13T07:55:07.741Z,12.60
2018-11-13T07:57:35.472Z,12.80
2018-11-13T08:00:03.717Z,12.80
2018-11-13T08:02:31.436Z,12.80
2018-11-13T08:04:59.158Z,12.90
2018-11-13T08:07:26.861Z,12.70
2018-11-13T08:09:54.581Z,13.00
2018-11-13T08:12:22.285Z,12.80
2018-11-13T08:14:49.968Z,13.20
2018-11-13T08:17:17.843Z,13.40
2018-11-13T08:19:45.549Z,13.50
2018-11-13T08:22:13.374Z,13.50
2018-11-13T08:24:41.018Z,13.30
2018-11-13T08:27:08.801Z,13.50
2018-11-13T08:29:36.587Z,13.30
2018-11-13T08:32:04.326Z,13.40
2018-11-13T08:34:32.023Z,13.30
2018-11-13T08:36:59.754Z,13.50
2018-11-13T08:39:27.462Z,13.20
2018-11-13T08:41:55.183Z,13.20
2018-11-13T08:44:22.893Z,13.20
2018-11-13T08:46:50.640Z,13.70
2018-11-13T08:49:18.377Z,13.50
2018-11-13T08:51:46.074Z,13.30
2018-11-13T08:54:13.826Z,13.70
2018-11-13T08:56:41.522Z,13.70
2018-11-13T08:59:09.364Z,13.70
2018-11-13T09:01:37.049Z,13.70
2018-11-13T09:04:05.069Z,13.60
2018-11-13T09:06:32.762Z,13.70
2018-11-13T09:09:04.334Z,14.40
2018-11-13T09:11:32.071Z,15.70
2018-11-13T09:13:59.810Z,16.90
2018-11-13T09:16:27.607Z,19.00
2018-11-13T09:18:55.374Z,19.90
2018-11-13T09:21:23.036Z,20.70
2018-11-13T09:23:50.737Z,20.30
2018-11-13T09:26:18.437Z,18.70
2018-11-13T09:28:46.151Z,18.00
2018-11-13T09:31:13.856Z,18.30
2018-11-13T09:33:41.624Z,17.80
2018-11-13T09:36:09.284Z,17.90
2018-11-13T09:38:37.002Z,18.90
2018-11-13T09:41:04.813Z,17.60
2018-11-13T09:43:32.511Z,16.30
2018-11-13T09:46:00.288Z,15.50
2018-11-13T09:48:27.974Z,14.90
2018-11-13T09:50:55.724Z,15.00
2018-11-13T09:53:23.517Z,16.10
2018-11-13T09:55:51.149Z,16.20
2018-11-13T09:58:18.864Z,15.60
2018-11-13T10:00:46.924Z,15.40
2018-11-13T10:03:14.865Z,15.10
2018-11-13T10:05:42.226Z,15.60
2018-11-13T10:08:09.846Z,16.30
2018-11-13T10:10:37.600Z,17.20
2018-11-13T10:13:05.342Z,18.30
2018-11-13T10:15:33.069Z,17.80
2018-11-13T10:18:00.836Z,16.50
2018-11-13T10:20:28.503Z,16.80
2018-11-13T10:22:57.173Z,17.10
2018-11-13T10:25:24.937Z,17.20
2018-11-13T10:27:52.683Z,16.90
2018-11-13T10:30:21.613Z,16.30
2018-11-13T10:32:50.185Z,15.70
2018-11-13T10:35:19.305Z,15.50
2018-11-13T10:37:47.046Z,14.60
2018-11-13T10:40:16.195Z,14.90
2018-11-13T10:42:44.137Z,14.80
2018-11-13T10:45:13.828Z,15.50
2018-11-13T10:47:41.995Z,17.00
2018-11-13T10:50:11.636Z,18.10
2018-11-13T10:52:39.685Z,18.70
2018-11-13T10:55:08.286Z,19.80
2018-11-13T10:57:36.329Z,19.70
2018-11-13T11:00:06.129Z,18.40
2018-11-13T11:02:39.547Z,17.80
2018-11-13T11:05:09.677Z,16.80
2018-11-13T11:07:37.397Z,16.80
2018-11-13T11:10:06.758Z,16.20
2018-11-13T11:12:34.510Z,15.60
2018-11-13T11:15:02.215Z,15.90
2018-11-13T11:17:29.930Z,16.20
2018-11-13T11:19:57.656Z,16.50
2018-11-13T11:22:25.675Z,17.50
2018-11-13T11:24:53.388Z,18.00
2018-11-13T11:27:21.125Z,18.60
2018-11-13T11:29:48.821Z,18.20
2018-11-13T11:32:16.555Z,17.90
2018-11-13T11:34:44.886Z,17.50
2018-11-13T11:37:12.632Z,18.00
2018-11-13T11:39:40.354Z,18.00
2018-11-13T11:42:08.109Z,17.70
2018-11-13T11:44:35.898Z,17.70
2018-11-13T11:47:03.599Z,18.10
2018-11-13T11:49:31.342Z,17.90
2018-11-13T11:51:59.046Z,18.30
2018-11-13T11:54:26.748Z,18.80
2018-11-13T11:56:54.510Z,19.40
2018-11-13T11:59:22.267Z,18.60
2018-11-13T12:01:50.033Z,18.20
2018-11-13T12:04:17.769Z,18.00
2018-11-13T12:06:45.464Z,17.60
2018-11-13T12:09:13.185Z,17.40
2018-11-13T12:11:41.131Z,17.20
2018-11-13T12:14:09.134Z,17.40
2018-11-13T12:16:37.486Z,16.90
2018-11-13T12:19:05.698Z,17.10
2018-11-13T12:21:33.421Z,18.40
2018-11-13T12:24:01.245Z,18.80
2018-11-13T12:26:28.959Z,18.70
2018-11-13T12:28:56.716Z,19.00
2018-11-13T12:31:24.494Z,19.40
2018-11-13T12:33:52.232Z,19.50
2018-11-13T12:36:19.946Z,20.10
2018-11-13T12:38:47.731Z,19.10
2018-11-13T12:41:15.425Z,18.60
2018-11-13T12:43:43.189Z,17.70
2018-11-13T12:46:10.927Z,17.00
2018-11-13T12:48:38.722Z,16.70
2018-11-13T12:51:07.235Z,16.60
2018-11-13T12:53:35.919Z,17.00
2018-11-13T12:56:03.790Z,17.10
2018-11-13T12:58:32.073Z,17.20
2018-11-13T13:01:00.279Z,17.60
2018-11-13T13:03:28.090Z,17.50
2018-11-13T13:05:55.805Z,17.70
2018-11-13T13:08:23.510Z,17.80
2018-11-13T13:10:51.300Z,17.80
2018-11-13T13:13:18.991Z,17.20
2018-11-13T13:15:46.739Z,17.40
2018-11-13T13:18:14.436Z,17.20
2018-11-13T13:20:42.282Z,16.30
2018-11-13T13:23:09.999Z,15.70
2018-11-13T13:25:37.766Z,15.60
2018-11-13T13:28:05.665Z,15.10
2018-11-13T13:30:33.413Z,14.80
2018-11-13T13:33:01.136Z,15.00
2018-11-13T13:35:48.241Z,15.30
2018-11-13T13:38:15.997Z,16.10
2018-11-13T13:40:44.762Z,15.90
2018-11-13T13:43:13.231Z,15.50
2018-11-13T13:45:41.720Z,15.40
2018-11-13T13:48:09.509Z,15.40
2018-11-13T13:50:37.767Z,14.90
2018-11-13T13:53:06.148Z,14.90
2018-11-13T13:55:33.884Z,14.40
2018-11-13T13:58:01.618Z,14.40
2018-11-13T14:00:29.704Z,14.40
2018-11-13T14:02:57.410Z,14.90
2018-11-13T14:05:25.144Z,15.60
2018-11-13T14:07:52.888Z,16.20
2018-11-13T14:10:20.639Z,16.70
2018-11-13T14:12:48.357Z,16.90
2018-11-13T14:15:16.185Z,16.40
2018-11-13T14:17:43.865Z,16.70
2018-11-13T14:20:16.997Z,16.80
2018-11-13T14:22:44.831Z,16.60
2018-11-13T14:25:13.221Z,16.80
2018-11-13T14:27:40.975Z,17.40
2018-11-13T14:30:18.785Z,17.50
2018-11-13T14:32:47.286Z,17.20
2018-11-13T14:35:15.350Z,16.70
2018-11-13T14:37:43.110Z,16.80
2018-11-13T14:40:14.789Z,16.20
2018-11-13T14:42:42.853Z,15.50
2018-11-13T14:45:10.994Z,15.60
2018-11-13T14:47:39.072Z,15.50
2018-11-13T14:50:09.147Z,15.50
2018-11-13T14:52:36.952Z,15.10
2018-11-13T14:55:07.012Z,15.40
2018-11-13T14:57:34.776Z,15.40
2018-11-13T15:00:02.577Z,14.90
2018-11-13T15:02:30.307Z,14.80
2018-11-13T15:04:57.999Z,14.70
2018-11-13T15:07:27.166Z,14.90
2018-11-13T15:09:53.427Z,15.00
2018-11-13T15:12:21.223Z,14.90
2018-11-13T15:14:48.923Z,14.90
2018-11-13T15:17:16.641Z,14.80
2018-11-13T15:19:44.335Z,15.20
2018-11-13T15:22:12.089Z,14.80
2018-11-13T15:24:39.778Z,14.90
2018-11-13T15:27:07.544Z,14.80
2018-11-13T15:29:35.237Z,14.60
2018-11-13T15:32:03.008Z,14.40
2018-11-13T15:34:30.734Z,13.90
2018-11-13T15:36:58.481Z,14.30
2018-11-13T15:39:26.206Z,14.00
2018-11-13T15:41:53.928Z,13.90
2018-11-13T15:44:21.658Z,14.20
2018-11-13T15:46:49.393Z,13.80
2018-11-13T15:49:17.138Z,13.90
2018-11-13T15:51:45.007Z,13.80
2018-11-13T15:54:12.616Z,13.70
2018-11-13T15:56:40.356Z,13.70
2018-11-13T15:59:08.092Z,13.80
2018-11-13T16:01:35.838Z,13.60
2018-11-13T16:04:03.565Z,13.30
2018-11-13T16:06:31.379Z,13.30
2018-11-13T16:08:59.070Z,13.40
2018-11-13T16:11:26.785Z,13.40
2018-11-13T16:13:54.526Z,13.40
2018-11-13T16:16:22.257Z,13.20
2018-11-13T16:18:49.989Z,13.30
2018-11-13T16:21:17.789Z,13.30
2018-11-13T16:23:45.457Z,13.30
2018-11-13T16:26:13.206Z,13.30
2018-11-13T16:28:40.993Z,13.30
2018-11-13T16:31:08.731Z,12.90
2018-11-13T16:33:36.466Z,13.30
2018-11-13T16:36:04.216Z,12.80
2018-11-13T16:38:32.015Z,12.90
2018-11-13T16:40:59.666Z,13.00
2018-11-13T16:43:27.402Z,12.80
2018-11-13T16:45:55.150Z,12.90
2018-11-13T16:48:23.047Z,12.80
2018-11-13T16:50:50.667Z,12.90
2018-11-13T16:53:18.414Z,12.30
2018-11-13T16:55:51.853Z,12.80
2018-11-13T16:58:19.646Z,12.30
2018-11-13T17:00:47.444Z,12.30
2018-11-13T17:03:15.118Z,12.50
2018-11-13T17:05:42.897Z,12.50
2018-11-13T17:08:10.643Z,12.30
2018-11-13T17:10:40.261Z,12.20
2018-11-13T17:13:08.021Z,12.20
2018-11-13T17:15:35.753Z,12.30
2018-11-13T17:18:03.950Z,12.20
2018-11-13T17:20:31.676Z,12.40
2018-11-13T17:22:59.401Z,12.20
2018-11-13T17:25:28.508Z,12.20
2018-11-13T17:27:56.357Z,12.20
2018-11-13T17:30:25.914Z,12.00
2018-11-13T17:32:54.473Z,11.90
2018-11-13T17:35:23.370Z,11.80
2018-11-13T17:37:51.965Z,11.80
2018-11-13T17:40:28.244Z,11.80
2018-11-13T17:42:57.313Z,12.00
2018-11-13T17:45:33.090Z,11.80
2018-11-13T17:48:00.820Z,11.80
2018-11-13T17:50:31.788Z,12.00
2018-11-13T17:52:59.497Z,11.80
2018-11-13T17:55:27.233Z,11.90
2018-11-13T17:57:57.332Z,11.80
2018-11-13T18:00:31.459Z,11.40
2018-11-13T18:02:59.625Z,11.40
2018-11-13T18:05:27.773Z,11.50
2018-11-13T18:07:56.651Z,11.40
2018-11-13T18:10:24.930Z,11.40
2018-11-13T18:12:52.628Z,11.40
2018-11-13T18:15:21.798Z,11.40
2018-11-13T18:17:49.753Z,10.80
2018-11-13T18:20:19.744Z,11.40
2018-11-13T18:22:47.634Z,11.40
2018-11-13T18:25:15.349Z,11.40
2018-11-13T18:27:44.442Z,11.40
2018-11-13T18:30:14.316Z,11.40
2018-11-13T18:32:42.732Z,11.50
2018-11-13T18:35:12.630Z,11.40
2018-11-13T18:37:40.347Z,11.30
2018-11-13T18:40:10.313Z,11.30
2018-11-13T18:42:38.044Z,11.40
2018-11-13T18:45:08.556Z,11.00
2018-11-13T18:47:36.346Z,11.30
2018-11-13T18:50:05.894Z,11.50
2018-11-13T18:52:33.582Z,11.50
2018-11-13T18:55:01.330Z,11.30
2018-11-13T18:57:29.036Z,11.10
2018-11-13T18:59:56.793Z,10.90
2018-11-13T19:02:24.501Z,11.00
2018-11-13T19:04:52.297Z,11.00
2018-11-13T19:07:19.981Z,11.30
2018-11-13T19:09:47.664Z,11.20
2018-11-13T19:12:15.465Z,10.90
2018-11-13T19:14:43.162Z,11.00
2018-11-13T19:17:10.936Z,11.00
2018-11-13T19:19:38.692Z,11.10
2018-11-13T19:22:06.381Z,10.60
2018-11-13T19:24:34.078Z,10.70
2018-11-13T19:27:01.794Z,10.80
2018-11-13T19:29:29.563Z,10.60
2018-11-13T19:31:57.306Z,10.90
2018-11-13T19:34:25.031Z,10.60
2018-11-13T19:36:52.879Z,10.80
2018-11-13T19:39:20.451Z,10.70
2018-11-13T19:41:48.189Z,10.60
2018-11-13T19:44:15.923Z,10.40
2018-11-13T19:46:43.674Z,10.20
2018-11-13T19:49:11.395Z,10.80
2018-11-13T19:51:39.192Z,10.30
2018-11-13T19:54:06.881Z,10.50
2018-11-13T19:56:34.630Z,10.20
2018-11-13T19:59:02.390Z,10.30
2018-11-13T20:01:30.093Z,10.30
2018-11-13T20:03:57.821Z,10.30
2018-11-13T20:06:25.530Z,10.20
2018-11-13T20:08:56.217Z,10.70
2018-11-13T20:11:23.936Z,10.10
2018-11-13T20:13:51.695Z,10.30
2018-11-13T20:16:19.459Z,10.30
2018-11-13T20:18:47.221Z,10.20
2018-11-13T20:21:14.962Z,10.50
2018-11-13T20:23:42.694Z,10.30
2018-11-13T20:26:10.401Z,10.30
2018-11-13T20:28:38.184Z,10.40
2018-11-13T20:31:05.946Z,10.30
2018-11-13T20:33:33.723Z,10.20
2018-11-13T20:36:01.467Z,10.30
2018-11-13T20:38:29.204Z,10.20
2018-11-13T20:40:56.909Z,10.10
2018-11-13T20:43:24.711Z,9.80
2018-11-13T20:45:52.377Z,10.10
2018-11-13T20:48:20.141Z,10.00
2018-11-13T20:50:47.890Z,9.90
2018-11-13T20:53:15.625Z,9.90
2018-11-13T20:55:43.365Z,10.20
2018-11-13T20:58:11.096Z,10.30
2018-11-13T21:00:38.826Z,10.30
2018-11-13T21:03:07.029Z,9.80
2018-11-13T21:05:34.785Z,10.10
2018-11-13T21:08:02.535Z,9.90
2018-11-13T21:10:37.688Z,9.90
2018-11-13T21:13:05.978Z,9.80
2018-11-13T21:15:33.720Z,9.90
2018-11-13T21:18:01.503Z,9.80
2018-11-13T21:20:29.232Z,10.00
2018-11-13T21:22:56.978Z,10.00
2018-11-13T21:25:25.580Z,9.80
2018-11-13T21:27:58.166Z,9.90
2018-11-13T21:30:26.032Z,9.90
2018-11-13T21:32:53.909Z,9.80
2018-11-13T21:35:21.665Z,10.10
2018-11-13T21:37:50.563Z,9.80
2018-11-13T21:40:19.542Z,9.70
2018-11-13T21:42:48.080Z,9.70
2018-11-13T21:45:16.601Z,9.60
2018-11-13T21:47:44.348Z,9.50
2018-11-13T21:50:13.868Z,9.50
2018-11-13T21:52:41.961Z,9.70
2018-11-13T21:55:11.562Z,9.60
2018-11-13T21:57:39.462Z,9.50
2018-11-13T22:00:19.111Z,9.30
2018-11-13T22:02:49.316Z,9.50
2018-11-13T22:05:17.046Z,9.30
2018-11-13T22:07:45.021Z,9.20
2018-11-13T22:10:12.877Z,9.60
2018-11-13T22:12:40.639Z,9.40
2018-11-13T22:15:11.343Z,9.70
2018-11-13T22:17:38.879Z,9.50
2018-11-13T22:20:07.843Z,9.50
2018-11-13T22:22:35.792Z,9.50
2018-11-13T22:25:03.477Z,9.60
2018-11-13T22:27:31.280Z,9.70
2018-11-13T22:29:59.078Z,9.70
2018-11-13T22:32:26.800Z,9.40
2018-11-13T22:34:54.524Z,9.60
2018-11-13T22:37:22.493Z,9.40
2018-11-13T22:39:50.228Z,9.70
2018-11-13T22:42:17.957Z,9.50
2018-11-13T22:44:45.705Z,9.50
2018-11-13T22:47:13.418Z,9.50
2018-11-13T22:49:41.159Z,9.40
2018-11-13T22:52:08.889Z,9.70
2018-11-13T22:54:36.604Z,9.40
2018-11-13T22:57:04.413Z,9.30
2018-11-13T22:59:32.153Z,9.50
2018-11-13T23:01:59.878Z,9.50
2018-11-13T23:04:27.609Z,9.60
2018-11-13T23:06:55.320Z,9.50
2018-11-13T23:09:23.030Z,9.50
2018-11-13T23:11:50.763Z,9.60
2018-11-13T23:14:18.510Z,9.60
2018-11-13T23:16:46.230Z,9.60
2018-11-13T23:19:13.981Z,9.50
2018-11-13T23:21:41.693Z,9.50
2018-11-13T23:24:09.420Z,9.60
2018-11-13T23:26:37.242Z,9.60
2018-11-13T23:29:05.204Z,9.50
2018-11-13T23:31:32.903Z,9.30
2018-11-13T23:34:00.621Z,9.60
2018-11-13T23:36:28.385Z,9.60
2018-11-13T23:38:56.186Z,9.00
2018-11-13T23:41:23.901Z,9.40
2018-11-13T23:43:51.617Z,9.60
2018-11-13T23:46:19.349Z,9.30
2018-11-13T23:48:47.052Z,9.50
2018-11-13T23:51:14.778Z,9.50
2018-11-13T23:53:42.549Z,9.60
2018-11-13T23:56:10.220Z,9.20
2018-11-13T23:58:37.944Z,9.50
